CheckWX is a tool to help pilots better visualize weather data.  It is not intended as a substitute for an official pre-flight weather briefing.

04:52:44 UTC

OMRK METAR
Ras Al Khaimah International Airport
Ras Al Khaimah, United Arab Emirates
Current

53 mins ago

OMRK 190400Z 21003KT CAVOK 13/12 Q1019 A3011
Observed
Jan-19 @ 04:00 UTC
Wind
  • 210° at 3 KTS
Visibility
10,000+ meters
Flight Rules
VFR
Cloud Levels
  • Clear skies
Temperature
13°C / 55°F
Dewpoint
12°C / 54°F
Humidity
94%
Altimeter
30.09" Hg
Pressure
1018.92 hPa
Previous

2 hours ago

OMRK 190300Z 19004KT CAVOK 12/11 Q1018 A3009
Observed
Jan-19 @ 03:00 UTC
Wind
  • 190° at 4 KTS
Visibility
10,000+ meters
Flight Rules
VFR
Cloud Levels
  • Clear skies
Temperature
12°C / 54°F
Dewpoint
11°C / 52°F
Humidity
94%
Altimeter
30.06" Hg
Pressure
1017.92 hPa
Previous

3 hours ago

OMRK 190200Z 17002KT CAVOK 12/11 Q1018 A3007
Observed
Jan-19 @ 02:00 UTC
Wind
  • 170° at 2 KTS
Visibility
10,000+ meters
Flight Rules
VFR
Cloud Levels
  • Clear skies
Temperature
12°C / 54°F
Dewpoint
11°C / 52°F
Humidity
94%
Altimeter
30.06" Hg
Pressure
1017.92 hPa